sensor_id;sensor_type;location;lat;lon;timestamp;P1;durP1;ratioP1;P2;durP2;ratioP2
428;SDS011;201;48.758;9.290;2022-11-30T00:01:53;40.60;;;26.00;;
428;SDS011;201;48.758;9.290;2022-11-30T00:04:19;40.53;;;24.73;;
428;SDS011;201;48.758;9.290;2022-11-30T00:06:44;45.97;;;25.30;;
428;SDS011;201;48.758;9.290;2022-11-30T00:09:10;48.87;;;25.70;;
428;SDS011;201;48.758;9.290;2022-11-30T00:11:35;48.10;;;25.87;;
428;SDS011;201;48.758;9.290;2022-11-30T00:14:01;43.13;;;24.93;;
428;SDS011;201;48.758;9.290;2022-11-30T00:16:26;46.03;;;26.13;;
428;SDS011;201;48.758;9.290;2022-11-30T00:18:52;42.97;;;24.73;;
428;SDS011;201;48.758;9.290;2022-11-30T00:21:18;43.77;;;25.57;;
428;SDS011;201;48.758;9.290;2022-11-30T00:23:44;43.03;;;24.17;;
428;SDS011;201;48.758;9.290;2022-11-30T00:26:12;52.80;;;25.63;;
428;SDS011;201;48.758;9.290;2022-11-30T00:28:39;50.33;;;26.57;;
428;SDS011;201;48.758;9.290;2022-11-30T00:31:06;47.70;;;25.10;;
428;SDS011;201;48.758;9.290;2022-11-30T00:33:35;45.33;;;25.23;;
428;SDS011;201;48.758;9.290;2022-11-30T00:36:20;46.97;;;26.27;;
428;SDS011;201;48.758;9.290;2022-11-30T00:38:46;52.83;;;26.27;;
428;SDS011;201;48.758;9.290;2022-11-30T00:41:13;45.37;;;25.93;;
428;SDS011;201;48.758;9.290;2022-11-30T00:43:39;45.70;;;25.40;;
428;SDS011;201;48.758;9.290;2022-11-30T00:46:05;47.10;;;26.00;;
428;SDS011;201;48.758;9.290;2022-11-30T00:48:32;42.37;;;25.10;;
428;SDS011;201;48.758;9.290;2022-11-30T00:50:58;52.57;;;25.63;;
428;SDS011;201;48.758;9.290;2022-11-30T00:53:24;49.60;;;26.47;;
428;SDS011;201;48.758;9.290;2022-11-30T00:55:50;43.87;;;24.47;;
428;SDS011;201;48.758;9.290;2022-11-30T00:58:16;39.87;;;23.27;;
428;SDS011;201;48.758;9.290;2022-11-30T01:00:42;47.07;;;24.40;;
428;SDS011;201;48.758;9.290;2022-11-30T01:03:07;44.10;;;24.03;;
428;SDS011;201;48.758;9.290;2022-11-30T01:05:33;40.20;;;24.33;;
428;SDS011;201;48.758;9.290;2022-11-30T01:08:00;37.70;;;23.17;;
428;SDS011;201;48.758;9.290;2022-11-30T01:10:28;32.90;;;21.23;;
428;SDS011;201;48.758;9.290;2022-11-30T01:12:53;35.07;;;22.43;;
428;SDS011;201;48.758;9.290;2022-11-30T01:15:20;36.57;;;21.23;;
428;SDS011;201;48.758;9.290;2022-11-30T01:17:45;33.13;;;21.07;;
428;SDS011;201;48.758;9.290;2022-11-30T01:20:11;33.03;;;21.17;;
428;SDS011;201;48.758;9.290;2022-11-30T01:22:37;34.10;;;20.97;;
428;SDS011;201;48.758;9.290;2022-11-30T01:25:03;35.33;;;19.03;;
428;SDS011;201;48.758;9.290;2022-11-30T01:27:28;31.57;;;20.10;;
428;SDS011;201;48.758;9.290;2022-11-30T01:29:54;32.30;;;19.70;;
428;SDS011;201;48.758;9.290;2022-11-30T01:32:20;31.40;;;19.67;;
428;SDS011;201;48.758;9.290;2022-11-30T01:34:45;27.53;;;18.20;;
428;SDS011;201;48.758;9.290;2022-11-30T01:37:11;33.93;;;20.43;;
428;SDS011;201;48.758;9.290;2022-11-30T01:39:37;28.97;;;19.00;;
428;SDS011;201;48.758;9.290;2022-11-30T01:42:02;28.83;;;19.60;;
428;SDS011;201;48.758;9.290;2022-11-30T01:47:01;31.10;;;19.93;;
428;SDS011;201;48.758;9.290;2022-11-30T01:49:32;28.50;;;17.47;;
428;SDS011;201;48.758;9.290;2022-11-30T01:52:18;32.97;;;18.67;;
428;SDS011;201;48.758;9.290;2022-11-30T01:54:50;36.40;;;20.90;;
428;SDS011;201;48.758;9.290;2022-11-30T01:57:33;30.13;;;19.40;;
428;SDS011;201;48.758;9.290;2022-11-30T02:00:04;26.03;;;16.80;;
428;SDS011;201;48.758;9.290;2022-11-30T02:02:37;29.00;;;17.60;;
428;SDS011;201;48.758;9.290;2022-11-30T02:05:04;24.93;;;17.20;;
428;SDS011;201;48.758;9.290;2022-11-30T02:07:30;23.00;;;14.80;;
428;SDS011;201;48.758;9.290;2022-11-30T02:09:56;20.03;;;14.37;;
428;SDS011;201;48.758;9.290;2022-11-30T02:12:26;25.80;;;16.60;;
428;SDS011;201;48.758;9.290;2022-11-30T02:15:14;26.97;;;17.50;;
428;SDS011;201;48.758;9.290;2022-11-30T02:17:48;30.27;;;19.30;;
428;SDS011;201;48.758;9.290;2022-11-30T02:23:25;28.17;;;18.10;;
428;SDS011;201;48.758;9.290;2022-11-30T02:31:39;24.37;;;16.10;;
428;SDS011;201;48.758;9.290;2022-11-30T02:34:13;28.17;;;17.90;;
428;SDS011;201;48.758;9.290;2022-11-30T02:36:40;34.17;;;18.87;;
428;SDS011;201;48.758;9.290;2022-11-30T02:39:06;32.07;;;20.07;;
428;SDS011;201;48.758;9.290;2022-11-30T02:41:34;30.30;;;17.63;;
428;SDS011;201;48.758;9.290;2022-11-30T02:44:04;36.07;;;20.23;;
428;SDS011;201;48.758;9.290;2022-11-30T02:49:32;30.87;;;18.60;;
428;SDS011;201;48.758;9.290;2022-11-30T02:52:04;33.93;;;20.70;;
428;SDS011;201;48.758;9.290;2022-11-30T02:54:32;26.63;;;17.50;;
428;SDS011;201;48.758;9.290;2022-11-30T02:56:58;33.43;;;20.67;;
428;SDS011;201;48.758;9.290;2022-11-30T02:59:24;30.67;;;19.50;;
428;SDS011;201;48.758;9.290;2022-11-30T03:01:49;35.80;;;18.80;;
428;SDS011;201;48.758;9.290;2022-11-30T03:04:15;32.17;;;20.10;;
428;SDS011;201;48.758;9.290;2022-11-30T03:06:41;39.30;;;20.87;;
428;SDS011;201;48.758;9.290;2022-11-30T03:09:07;27.70;;;17.43;;
428;SDS011;201;48.758;9.290;2022-11-30T03:11:33;32.33;;;19.57;;
428;SDS011;201;48.758;9.290;2022-11-30T03:13:58;29.33;;;18.77;;
428;SDS011;201;48.758;9.290;2022-11-30T03:16:24;29.57;;;17.50;;
428;SDS011;201;48.758;9.290;2022-11-30T03:18:49;30.80;;;17.40;;
428;SDS011;201;48.758;9.290;2022-11-30T03:21:15;23.03;;;15.50;;
428;SDS011;201;48.758;9.290;2022-11-30T03:23:40;24.20;;;15.83;;
428;SDS011;201;48.758;9.290;2022-11-30T03:26:06;27.00;;;14.60;;
428;SDS011;201;48.758;9.290;2022-11-30T03:28:33;25.67;;;15.63;;
428;SDS011;201;48.758;9.290;2022-11-30T03:31:02;21.73;;;15.10;;
428;SDS011;201;48.758;9.290;2022-11-30T03:33:28;23.63;;;16.50;;
428;SDS011;201;48.758;9.290;2022-11-30T03:38:29;22.53;;;14.97;;
428;SDS011;201;48.758;9.290;2022-11-30T03:40:58;24.40;;;15.27;;
428;SDS011;201;48.758;9.290;2022-11-30T03:43:28;23.10;;;15.80;;
428;SDS011;201;48.758;9.290;2022-11-30T03:45:54;23.80;;;15.40;;
428;SDS011;201;48.758;9.290;2022-11-30T03:48:20;26.43;;;16.17;;
428;SDS011;201;48.758;9.290;2022-11-30T03:50:46;26.63;;;16.83;;
428;SDS011;201;48.758;9.290;2022-11-30T03:53:17;27.33;;;15.50;;
428;SDS011;201;48.758;9.290;2022-11-30T03:55:44;23.00;;;15.40;;
428;SDS011;201;48.758;9.290;2022-11-30T03:58:10;24.77;;;15.10;;
428;SDS011;201;48.758;9.290;2022-11-30T04:00:36;24.93;;;16.53;;
428;SDS011;201;48.758;9.290;2022-11-30T04:03:02;24.93;;;15.40;;
428;SDS011;201;48.758;9.290;2022-11-30T04:05:28;22.40;;;15.10;;
428;SDS011;201;48.758;9.290;2022-11-30T04:07:54;22.87;;;14.03;;
428;SDS011;201;48.758;9.290;2022-11-30T04:10:19;21.90;;;13.47;;
428;SDS011;201;48.758;9.290;2022-11-30T04:12:45;21.07;;;12.93;;
428;SDS011;201;48.758;9.290;2022-11-30T04:15:10;24.77;;;14.40;;
428;SDS011;201;48.758;9.290;2022-11-30T04:17:36;21.17;;;14.37;;
428;SDS011;201;48.758;9.290;2022-11-30T04:20:02;25.70;;;16.07;;
428;SDS011;201;48.758;9.290;2022-11-30T04:22:28;19.50;;;14.37;;
428;SDS011;201;48.758;9.290;2022-11-30T04:24:54;24.90;;;15.00;;
428;SDS011;201;48.758;9.290;2022-11-30T04:27:19;23.87;;;14.57;;
428;SDS011;201;48.758;9.290;2022-11-30T04:29:45;22.90;;;14.40;;
428;SDS011;201;48.758;9.290;2022-11-30T04:32:10;25.90;;;15.47;;
428;SDS011;201;48.758;9.290;2022-11-30T04:34:36;21.43;;;13.53;;
428;SDS011;201;48.758;9.290;2022-11-30T04:37:01;22.57;;;13.80;;
428;SDS011;201;48.758;9.290;2022-11-30T04:39:27;28.23;;;16.57;;
428;SDS011;201;48.758;9.290;2022-11-30T04:41:52;23.77;;;15.27;;
428;SDS011;201;48.758;9.290;2022-11-30T04:44:18;23.20;;;14.60;;
428;SDS011;201;48.758;9.290;2022-11-30T04:46:44;20.50;;;13.67;;
428;SDS011;201;48.758;9.290;2022-11-30T04:49:09;24.40;;;15.40;;
428;SDS011;201;48.758;9.290;2022-11-30T04:51:35;28.20;;;16.73;;
428;SDS011;201;48.758;9.290;2022-11-30T04:54:00;21.03;;;14.90;;
428;SDS011;201;48.758;9.290;2022-11-30T04:56:26;22.90;;;15.43;;
428;SDS011;201;48.758;9.290;2022-11-30T04:58:51;22.33;;;14.70;;
428;SDS011;201;48.758;9.290;2022-11-30T05:01:17;24.80;;;15.20;;
428;SDS011;201;48.758;9.290;2022-11-30T05:03:42;22.30;;;14.33;;
428;SDS011;201;48.758;9.290;2022-11-30T05:06:08;25.83;;;14.20;;
428;SDS011;201;48.758;9.290;2022-11-30T05:08:33;20.90;;;12.97;;
428;SDS011;201;48.758;9.290;2022-11-30T05:10:59;20.57;;;12.87;;
428;SDS011;201;48.758;9.290;2022-11-30T05:13:25;22.40;;;14.80;;
428;SDS011;201;48.758;9.290;2022-11-30T05:15:50;22.30;;;14.97;;
428;SDS011;201;48.758;9.290;2022-11-30T05:18:17;24.10;;;13.50;;
428;SDS011;201;48.758;9.290;2022-11-30T05:20:47;23.93;;;14.93;;
428;SDS011;201;48.758;9.290;2022-11-30T05:23:13;29.60;;;14.70;;
428;SDS011;201;48.758;9.290;2022-11-30T05:25:40;20.87;;;13.10;;
428;SDS011;201;48.758;9.290;2022-11-30T05:28:06;20.43;;;13.27;;
428;SDS011;201;48.758;9.290;2022-11-30T05:30:31;26.00;;;14.40;;
428;SDS011;201;48.758;9.290;2022-11-30T05:32:57;19.80;;;12.80;;
428;SDS011;201;48.758;9.290;2022-11-30T05:35:23;20.27;;;13.63;;
428;SDS011;201;48.758;9.290;2022-11-30T05:37:49;26.80;;;13.50;;
428;SDS011;201;48.758;9.290;2022-11-30T05:40:14;18.97;;;13.70;;
428;SDS011;201;48.758;9.290;2022-11-30T05:42:40;24.37;;;15.30;;
428;SDS011;201;48.758;9.290;2022-11-30T05:45:05;20.90;;;12.80;;
428;SDS011;201;48.758;9.290;2022-11-30T05:47:31;22.57;;;13.87;;
428;SDS011;201;48.758;9.290;2022-11-30T05:49:57;23.87;;;14.87;;
428;SDS011;201;48.758;9.290;2022-11-30T05:52:22;22.10;;;14.60;;
428;SDS011;201;48.758;9.290;2022-11-30T05:54:48;23.07;;;14.80;;
428;SDS011;201;48.758;9.290;2022-11-30T05:57:14;24.50;;;14.77;;
428;SDS011;201;48.758;9.290;2022-11-30T05:59:39;28.30;;;15.40;;
428;SDS011;201;48.758;9.290;2022-11-30T06:02:05;23.53;;;14.50;;
428;SDS011;201;48.758;9.290;2022-11-30T06:04:31;27.57;;;15.27;;
428;SDS011;201;48.758;9.290;2022-11-30T06:06:57;24.77;;;15.20;;
428;SDS011;201;48.758;9.290;2022-11-30T06:09:23;31.47;;;15.60;;
428;SDS011;201;48.758;9.290;2022-11-30T06:11:49;24.90;;;16.03;;
428;SDS011;201;48.758;9.290;2022-11-30T06:14:15;26.90;;;14.40;;
428;SDS011;201;48.758;9.290;2022-11-30T06:16:41;22.43;;;15.50;;
428;SDS011;201;48.758;9.290;2022-11-30T06:19:06;29.07;;;16.40;;
428;SDS011;201;48.758;9.290;2022-11-30T06:21:32;27.17;;;15.20;;
428;SDS011;201;48.758;9.290;2022-11-30T06:23:58;25.00;;;14.47;;
428;SDS011;201;48.758;9.290;2022-11-30T06:26:23;25.30;;;15.90;;
428;SDS011;201;48.758;9.290;2022-11-30T06:28:49;24.43;;;15.90;;
428;SDS011;201;48.758;9.290;2022-11-30T06:31:15;21.27;;;14.00;;
428;SDS011;201;48.758;9.290;2022-11-30T06:33:40;25.70;;;14.57;;
428;SDS011;201;48.758;9.290;2022-11-30T06:36:06;22.80;;;15.07;;
428;SDS011;201;48.758;9.290;2022-11-30T06:38:32;25.50;;;14.93;;
428;SDS011;201;48.758;9.290;2022-11-30T06:41:04;23.00;;;13.10;;
428;SDS011;201;48.758;9.290;2022-11-30T06:43:34;24.97;;;17.03;;
428;SDS011;201;48.758;9.290;2022-11-30T06:46:01;30.33;;;17.40;;
428;SDS011;201;48.758;9.290;2022-11-30T06:48:36;27.17;;;15.27;;
428;SDS011;201;48.758;9.290;2022-11-30T06:51:11;24.37;;;15.77;;
428;SDS011;201;48.758;9.290;2022-11-30T06:53:36;23.03;;;15.47;;
428;SDS011;201;48.758;9.290;2022-11-30T06:56:05;26.07;;;16.17;;
428;SDS011;201;48.758;9.290;2022-11-30T06:58:31;29.67;;;15.50;;
428;SDS011;201;48.758;9.290;2022-11-30T07:00:57;24.83;;;15.17;;
428;SDS011;201;48.758;9.290;2022-11-30T07:03:23;22.90;;;15.13;;
428;SDS011;201;48.758;9.290;2022-11-30T07:05:49;28.10;;;17.10;;
428;SDS011;201;48.758;9.290;2022-11-30T07:08:15;22.77;;;14.37;;
428;SDS011;201;48.758;9.290;2022-11-30T07:10:41;26.27;;;15.73;;
428;SDS011;201;48.758;9.290;2022-11-30T07:13:09;29.27;;;16.10;;
428;SDS011;201;48.758;9.290;2022-11-30T07:15:36;23.70;;;16.30;;
428;SDS011;201;48.758;9.290;2022-11-30T07:18:02;26.50;;;17.80;;
428;SDS011;201;48.758;9.290;2022-11-30T07:20:27;31.43;;;17.70;;
428;SDS011;201;48.758;9.290;2022-11-30T07:22:56;32.53;;;18.37;;
428;SDS011;201;48.758;9.290;2022-11-30T07:25:42;31.40;;;18.30;;
428;SDS011;201;48.758;9.290;2022-11-30T07:28:26;31.70;;;17.10;;
428;SDS011;201;48.758;9.290;2022-11-30T07:30:51;31.30;;;18.80;;
428;SDS011;201;48.758;9.290;2022-11-30T07:33:17;28.70;;;18.37;;
428;SDS011;201;48.758;9.290;2022-11-30T07:35:42;30.20;;;18.00;;
428;SDS011;201;48.758;9.290;2022-11-30T07:38:08;33.10;;;16.83;;
428;SDS011;201;48.758;9.290;2022-11-30T07:40:33;28.67;;;18.40;;
428;SDS011;201;48.758;9.290;2022-11-30T07:42:59;30.20;;;18.30;;
428;SDS011;201;48.758;9.290;2022-11-30T07:45:24;36.53;;;19.97;;
428;SDS011;201;48.758;9.290;2022-11-30T07:47:50;31.63;;;19.73;;
428;SDS011;201;48.758;9.290;2022-11-30T07:50:15;32.50;;;18.97;;
428;SDS011;201;48.758;9.290;2022-11-30T07:52:41;33.73;;;19.43;;
428;SDS011;201;48.758;9.290;2022-11-30T07:55:07;35.20;;;20.93;;
428;SDS011;201;48.758;9.290;2022-11-30T07:57:33;29.80;;;17.10;;
428;SDS011;201;48.758;9.290;2022-11-30T07:59:59;31.97;;;17.40;;
428;SDS011;201;48.758;9.290;2022-11-30T08:02:24;29.27;;;17.40;;
428;SDS011;201;48.758;9.290;2022-11-30T08:04:50;27.70;;;17.87;;
428;SDS011;201;48.758;9.290;2022-11-30T08:07:16;28.63;;;17.70;;
428;SDS011;201;48.758;9.290;2022-11-30T08:09:41;28.43;;;16.53;;
428;SDS011;201;48.758;9.290;2022-11-30T08:12:09;30.20;;;19.13;;
428;SDS011;201;48.758;9.290;2022-11-30T08:14:34;30.80;;;16.53;;
428;SDS011;201;48.758;9.290;2022-11-30T08:17:00;25.30;;;17.20;;
428;SDS011;201;48.758;9.290;2022-11-30T08:19:25;30.50;;;17.47;;
428;SDS011;201;48.758;9.290;2022-11-30T08:21:51;26.87;;;15.30;;
428;SDS011;201;48.758;9.290;2022-11-30T08:24:16;29.30;;;15.50;;
428;SDS011;201;48.758;9.290;2022-11-30T08:26:42;31.33;;;17.80;;
428;SDS011;201;48.758;9.290;2022-11-30T08:29:08;28.70;;;16.70;;
428;SDS011;201;48.758;9.290;2022-11-30T08:31:35;26.30;;;15.23;;
428;SDS011;201;48.758;9.290;2022-11-30T08:34:06;32.97;;;16.97;;
428;SDS011;201;48.758;9.290;2022-11-30T08:36:34;30.30;;;16.27;;
428;SDS011;201;48.758;9.290;2022-11-30T08:39:00;26.93;;;16.43;;
428;SDS011;201;48.758;9.290;2022-11-30T08:41:28;33.87;;;17.33;;
428;SDS011;201;48.758;9.290;2022-11-30T08:43:55;25.83;;;15.03;;
428;SDS011;201;48.758;9.290;2022-11-30T08:46:21;24.20;;;14.77;;
428;SDS011;201;48.758;9.290;2022-11-30T08:48:48;27.07;;;14.57;;
428;SDS011;201;48.758;9.290;2022-11-30T08:51:14;21.57;;;13.70;;
428;SDS011;201;48.758;9.290;2022-11-30T08:53:42;23.93;;;14.33;;
428;SDS011;201;48.758;9.290;2022-11-30T08:56:12;24.07;;;14.27;;
428;SDS011;201;48.758;9.290;2022-11-30T08:58:43;25.83;;;15.03;;
428;SDS011;201;48.758;9.290;2022-11-30T09:01:11;21.63;;;13.47;;
428;SDS011;201;48.758;9.290;2022-11-30T09:03:38;23.80;;;13.47;;
428;SDS011;201;48.758;9.290;2022-11-30T09:08:32;25.00;;;13.33;;
428;SDS011;201;48.758;9.290;2022-11-30T09:11:06;24.00;;;13.40;;
428;SDS011;201;48.758;9.290;2022-11-30T09:13:32;21.43;;;13.60;;
428;SDS011;201;48.758;9.290;2022-11-30T09:15:58;25.53;;;15.00;;
428;SDS011;201;48.758;9.290;2022-11-30T09:18:24;20.93;;;14.40;;
428;SDS011;201;48.758;9.290;2022-11-30T09:20:49;25.13;;;14.13;;
428;SDS011;201;48.758;9.290;2022-11-30T09:23:15;19.63;;;13.67;;
428;SDS011;201;48.758;9.290;2022-11-30T09:25:40;26.40;;;13.97;;
428;SDS011;201;48.758;9.290;2022-11-30T09:28:06;18.80;;;12.20;;
428;SDS011;201;48.758;9.290;2022-11-30T09:30:31;22.27;;;12.83;;
428;SDS011;201;48.758;9.290;2022-11-30T09:32:58;21.10;;;10.70;;
428;SDS011;201;48.758;9.290;2022-11-30T09:35:24;16.83;;;11.47;;
428;SDS011;201;48.758;9.290;2022-11-30T09:37:51;19.53;;;12.10;;
428;SDS011;201;48.758;9.290;2022-11-30T09:40:17;22.93;;;11.07;;
428;SDS011;201;48.758;9.290;2022-11-30T09:42:49;17.07;;;10.03;;
428;SDS011;201;48.758;9.290;2022-11-30T09:45:38;18.50;;;10.77;;
428;SDS011;201;48.758;9.290;2022-11-30T09:48:17;16.90;;;10.60;;
428;SDS011;201;48.758;9.290;2022-11-30T09:50:46;17.40;;;10.57;;
428;SDS011;201;48.758;9.290;2022-11-30T09:53:21;16.80;;;10.63;;
428;SDS011;201;48.758;9.290;2022-11-30T09:55:53;21.40;;;12.20;;
428;SDS011;201;48.758;9.290;2022-11-30T09:58:23;20.50;;;12.17;;
428;SDS011;201;48.758;9.290;2022-11-30T10:00:59;19.40;;;10.90;;
428;SDS011;201;48.758;9.290;2022-11-30T10:03:26;18.03;;;11.53;;
428;SDS011;201;48.758;9.290;2022-11-30T10:08:27;20.87;;;11.60;;
428;SDS011;201;48.758;9.290;2022-11-30T10:11:19;18.00;;;11.63;;
428;SDS011;201;48.758;9.290;2022-11-30T10:17:03;17.03;;;9.90;;
428;SDS011;201;48.758;9.290;2022-11-30T10:20:11;17.43;;;10.90;;
428;SDS011;201;48.758;9.290;2022-11-30T10:28:32;12.87;;;9.57;;
428;SDS011;201;48.758;9.290;2022-11-30T10:31:17;17.23;;;9.27;;
428;SDS011;201;48.758;9.290;2022-11-30T10:33:48;20.97;;;11.27;;
428;SDS011;201;48.758;9.290;2022-11-30T10:39:16;15.33;;;10.10;;
428;SDS011;201;48.758;9.290;2022-11-30T10:41:45;14.27;;;10.67;;
428;SDS011;201;48.758;9.290;2022-11-30T10:44:19;13.30;;;9.80;;
428;SDS011;201;48.758;9.290;2022-11-30T10:46:55;13.70;;;8.80;;
428;SDS011;201;48.758;9.290;2022-11-30T10:49:25;11.10;;;7.53;;
428;SDS011;201;48.758;9.290;2022-11-30T10:51:53;15.30;;;8.83;;
428;SDS011;201;48.758;9.290;2022-11-30T10:54:25;10.30;;;8.43;;
428;SDS011;201;48.758;9.290;2022-11-30T10:56:53;11.00;;;8.50;;
428;SDS011;201;48.758;9.290;2022-11-30T10:59:33;13.70;;;9.83;;
428;SDS011;201;48.758;9.290;2022-11-30T11:05:07;12.60;;;8.30;;
428;SDS011;201;48.758;9.290;2022-11-30T11:07:43;12.17;;;7.70;;
428;SDS011;201;48.758;9.290;2022-11-30T11:10:17;11.70;;;8.50;;
428;SDS011;201;48.758;9.290;2022-11-30T11:12:48;13.57;;;9.07;;
428;SDS011;201;48.758;9.290;2022-11-30T11:17:42;12.80;;;9.30;;
428;SDS011;201;48.758;9.290;2022-11-30T11:20:28;12.60;;;8.50;;
428;SDS011;201;48.758;9.290;2022-11-30T11:23:03;11.53;;;8.80;;
428;SDS011;201;48.758;9.290;2022-11-30T11:25:33;13.43;;;8.30;;
428;SDS011;201;48.758;9.290;2022-11-30T11:30:39;11.87;;;8.50;;
428;SDS011;201;48.758;9.290;2022-11-30T11:35:38;13.67;;;8.17;;
428;SDS011;201;48.758;9.290;2022-11-30T11:43:19;10.73;;;8.07;;
428;SDS011;201;48.758;9.290;2022-11-30T11:45:49;9.80;;;7.10;;
428;SDS011;201;48.758;9.290;2022-11-30T11:51:12;12.13;;;8.00;;
428;SDS011;201;48.758;9.290;2022-11-30T11:53:57;10.13;;;8.20;;
428;SDS011;201;48.758;9.290;2022-11-30T11:56:31;11.90;;;8.67;;
428;SDS011;201;48.758;9.290;2022-11-30T11:59:04;10.90;;;8.07;;
428;SDS011;201;48.758;9.290;2022-11-30T12:01:42;10.47;;;8.07;;
428;SDS011;201;48.758;9.290;2022-11-30T12:06:58;16.03;;;9.77;;
428;SDS011;201;48.758;9.290;2022-11-30T12:09:29;17.40;;;9.17;;
428;SDS011;201;48.758;9.290;2022-11-30T12:12:00;14.20;;;9.30;;
428;SDS011;201;48.758;9.290;2022-11-30T12:14:26;13.90;;;9.30;;
428;SDS011;201;48.758;9.290;2022-11-30T12:17:04;19.30;;;9.63;;
428;SDS011;201;48.758;9.290;2022-11-30T12:19:58;22.90;;;11.50;;
428;SDS011;201;48.758;9.290;2022-11-30T12:28:30;15.03;;;11.07;;
428;SDS011;201;48.758;9.290;2022-11-30T12:31:12;18.83;;;11.50;;
428;SDS011;201;48.758;9.290;2022-11-30T12:38:56;18.33;;;11.13;;
428;SDS011;201;48.758;9.290;2022-11-30T12:41:37;14.43;;;10.10;;
428;SDS011;201;48.758;9.290;2022-11-30T12:44:23;16.70;;;11.90;;
428;SDS011;201;48.758;9.290;2022-11-30T12:49:56;16.27;;;10.90;;
428;SDS011;201;48.758;9.290;2022-11-30T12:52:44;18.27;;;11.43;;
428;SDS011;201;48.758;9.290;2022-11-30T12:57:58;15.80;;;11.00;;
428;SDS011;201;48.758;9.290;2022-11-30T13:08:57;14.97;;;11.00;;
428;SDS011;201;48.758;9.290;2022-11-30T13:11:35;20.13;;;12.07;;
428;SDS011;201;48.758;9.290;2022-11-30T13:14:02;17.77;;;10.23;;
428;SDS011;201;48.758;9.290;2022-11-30T13:16:30;17.60;;;10.80;;
428;SDS011;201;48.758;9.290;2022-11-30T13:19:00;16.97;;;11.50;;
428;SDS011;201;48.758;9.290;2022-11-30T13:21:48;17.37;;;10.40;;
428;SDS011;201;48.758;9.290;2022-11-30T13:24:21;16.53;;;11.17;;
428;SDS011;201;48.758;9.290;2022-11-30T13:29:48;19.77;;;12.30;;
428;SDS011;201;48.758;9.290;2022-11-30T13:32:18;20.87;;;13.50;;
428;SDS011;201;48.758;9.290;2022-11-30T13:34:44;19.60;;;12.33;;
428;SDS011;201;48.758;9.290;2022-11-30T13:39:48;20.20;;;12.17;;
428;SDS011;201;48.758;9.290;2022-11-30T13:44:53;14.67;;;10.20;;
428;SDS011;201;48.758;9.290;2022-11-30T13:47:29;15.70;;;10.90;;
428;SDS011;201;48.758;9.290;2022-11-30T13:49:59;18.50;;;10.83;;
428;SDS011;201;48.758;9.290;2022-11-30T14:02:54;23.00;;;11.60;;
428;SDS011;201;48.758;9.290;2022-11-30T14:05:38;16.47;;;10.83;;
428;SDS011;201;48.758;9.290;2022-11-30T14:10:31;19.37;;;11.80;;
428;SDS011;201;48.758;9.290;2022-11-30T14:18:01;19.27;;;11.97;;
428;SDS011;201;48.758;9.290;2022-11-30T14:20:50;17.20;;;10.77;;
428;SDS011;201;48.758;9.290;2022-11-30T14:26:09;19.27;;;12.10;;
428;SDS011;201;48.758;9.290;2022-11-30T14:31:23;15.97;;;11.50;;
428;SDS011;201;48.758;9.290;2022-11-30T14:33:52;19.47;;;13.30;;
428;SDS011;201;48.758;9.290;2022-11-30T14:36:26;20.33;;;11.70;;
428;SDS011;201;48.758;9.290;2022-11-30T14:38:58;23.93;;;12.10;;
428;SDS011;201;48.758;9.290;2022-11-30T14:41:24;19.20;;;11.90;;
428;SDS011;201;48.758;9.290;2022-11-30T14:44:02;18.50;;;12.10;;
428;SDS011;201;48.758;9.290;2022-11-30T14:46:36;18.77;;;12.60;;
428;SDS011;201;48.758;9.290;2022-11-30T14:49:03;20.30;;;12.83;;
428;SDS011;201;48.758;9.290;2022-11-30T14:52:03;21.80;;;12.13;;
428;SDS011;201;48.758;9.290;2022-11-30T14:54:51;20.73;;;12.07;;
428;SDS011;201;48.758;9.290;2022-11-30T14:57:26;19.17;;;11.77;;
428;SDS011;201;48.758;9.290;2022-11-30T14:59:56;19.77;;;12.97;;
428;SDS011;201;48.758;9.290;2022-11-30T15:02:28;19.33;;;11.10;;
428;SDS011;201;48.758;9.290;2022-11-30T15:04:58;20.00;;;12.10;;
428;SDS011;201;48.758;9.290;2022-11-30T15:07:25;20.03;;;12.23;;
428;SDS011;201;48.758;9.290;2022-11-30T15:09:56;20.07;;;12.63;;
428;SDS011;201;48.758;9.290;2022-11-30T15:12:27;19.33;;;13.20;;
428;SDS011;201;48.758;9.290;2022-11-30T15:15:03;23.50;;;13.23;;
428;SDS011;201;48.758;9.290;2022-11-30T15:17:56;22.43;;;13.40;;
428;SDS011;201;48.758;9.290;2022-11-30T15:20:27;18.93;;;11.60;;
428;SDS011;201;48.758;9.290;2022-11-30T15:22:58;25.70;;;14.03;;
428;SDS011;201;48.758;9.290;2022-11-30T15:25:27;22.23;;;13.83;;
428;SDS011;201;48.758;9.290;2022-11-30T15:27:57;21.10;;;12.90;;
428;SDS011;201;48.758;9.290;2022-11-30T15:30:23;19.57;;;12.67;;
428;SDS011;201;48.758;9.290;2022-11-30T15:32:49;23.83;;;14.73;;
428;SDS011;201;48.758;9.290;2022-11-30T15:35:20;17.70;;;13.20;;
428;SDS011;201;48.758;9.290;2022-11-30T15:37:48;22.57;;;14.53;;
428;SDS011;201;48.758;9.290;2022-11-30T15:40:15;19.80;;;12.47;;
428;SDS011;201;48.758;9.290;2022-11-30T15:42:57;24.17;;;15.20;;
428;SDS011;201;48.758;9.290;2022-11-30T15:45:25;20.60;;;14.87;;
428;SDS011;201;48.758;9.290;2022-11-30T15:47:51;24.33;;;15.03;;
428;SDS011;201;48.758;9.290;2022-11-30T15:52:57;20.00;;;12.70;;
428;SDS011;201;48.758;9.290;2022-11-30T16:01:00;13.93;;;10.10;;
428;SDS011;201;48.758;9.290;2022-11-30T16:06:25;18.63;;;11.80;;
428;SDS011;201;48.758;9.290;2022-11-30T16:08:54;16.77;;;11.67;;
428;SDS011;201;48.758;9.290;2022-11-30T16:11:21;21.00;;;12.33;;
428;SDS011;201;48.758;9.290;2022-11-30T16:13:47;16.13;;;10.83;;
428;SDS011;201;48.758;9.290;2022-11-30T16:16:13;15.50;;;10.80;;
428;SDS011;201;48.758;9.290;2022-11-30T16:18:47;17.43;;;11.60;;
428;SDS011;201;48.758;9.290;2022-11-30T16:21:14;16.37;;;10.30;;
428;SDS011;201;48.758;9.290;2022-11-30T16:23:42;14.63;;;10.57;;
428;SDS011;201;48.758;9.290;2022-11-30T16:26:09;19.20;;;11.07;;
428;SDS011;201;48.758;9.290;2022-11-30T16:28:36;18.27;;;10.90;;
428;SDS011;201;48.758;9.290;2022-11-30T16:31:02;20.50;;;10.93;;
428;SDS011;201;48.758;9.290;2022-11-30T16:33:27;16.90;;;11.07;;
428;SDS011;201;48.758;9.290;2022-11-30T16:35:54;16.43;;;11.53;;
428;SDS011;201;48.758;9.290;2022-11-30T16:38:21;19.33;;;11.57;;
428;SDS011;201;48.758;9.290;2022-11-30T16:40:48;21.37;;;12.50;;
428;SDS011;201;48.758;9.290;2022-11-30T16:43:13;19.60;;;10.90;;
428;SDS011;201;48.758;9.290;2022-11-30T16:45:40;16.97;;;10.67;;
428;SDS011;201;48.758;9.290;2022-11-30T16:48:07;17.07;;;10.37;;
428;SDS011;201;48.758;9.290;2022-11-30T16:50:33;18.70;;;10.30;;
428;SDS011;201;48.758;9.290;2022-11-30T16:53:00;22.40;;;12.50;;
428;SDS011;201;48.758;9.290;2022-11-30T16:55:32;18.50;;;11.07;;
428;SDS011;201;48.758;9.290;2022-11-30T16:57:59;16.57;;;11.03;;
428;SDS011;201;48.758;9.290;2022-11-30T17:00:26;19.13;;;10.77;;
428;SDS011;201;48.758;9.290;2022-11-30T17:05:32;18.70;;;12.07;;
428;SDS011;201;48.758;9.290;2022-11-30T17:07:58;19.37;;;12.90;;
428;SDS011;201;48.758;9.290;2022-11-30T17:10:24;17.27;;;11.37;;
428;SDS011;201;48.758;9.290;2022-11-30T17:12:50;15.83;;;10.77;;
428;SDS011;201;48.758;9.290;2022-11-30T17:15:17;18.27;;;12.07;;
428;SDS011;201;48.758;9.290;2022-11-30T17:17:44;18.37;;;11.60;;
428;SDS011;201;48.758;9.290;2022-11-30T17:20:10;20.17;;;12.20;;
428;SDS011;201;48.758;9.290;2022-11-30T17:22:37;15.77;;;10.53;;
428;SDS011;201;48.758;9.290;2022-11-30T17:25:05;16.80;;;11.87;;
428;SDS011;201;48.758;9.290;2022-11-30T17:27:33;18.60;;;10.83;;
428;SDS011;201;48.758;9.290;2022-11-30T17:29:58;14.77;;;11.93;;
428;SDS011;201;48.758;9.290;2022-11-30T17:32:24;16.30;;;10.47;;
428;SDS011;201;48.758;9.290;2022-11-30T17:34:49;12.57;;;9.10;;